createdAt,value
2018-05-24T00:01:54.384Z,18.30
2018-05-24T00:06:56.913Z,18.98
2018-05-24T00:12:00.210Z,19.60
2018-05-24T00:17:02.710Z,18.60
2018-05-24T00:22:06.019Z,22.50
2018-05-24T00:27:08.534Z,22.63
2018-05-24T00:32:11.056Z,24.30
2018-05-24T00:37:14.179Z,25.27
2018-05-24T00:42:16.698Z,24.00
2018-05-24T00:47:19.241Z,27.73
2018-05-24T00:52:21.792Z,26.87
2018-05-24T00:57:24.354Z,30.37
2018-05-24T01:02:27.820Z,25.13
2018-05-24T01:07:32.024Z,22.52
2018-05-24T01:12:35.340Z,23.75
2018-05-24T01:17:37.877Z,22.10
2018-05-24T01:22:40.428Z,23.12
2018-05-24T01:27:42.983Z,22.02
2018-05-24T01:32:45.529Z,23.20
2018-05-24T01:37:50.663Z,22.10
2018-05-24T01:42:53.234Z,22.25
2018-05-24T01:47:55.785Z,21.80
2018-05-24T01:52:58.319Z,22.90
2018-05-24T01:58:00.841Z,20.70
2018-05-24T02:03:03.357Z,19.83
2018-05-24T02:08:06.683Z,19.50
2018-05-24T02:13:09.191Z,20.50
2018-05-24T02:18:11.768Z,22.05
2018-05-24T02:23:14.368Z,21.52
2018-05-24T02:28:17.771Z,22.60
2018-05-24T02:33:21.241Z,21.80
2018-05-24T02:38:23.805Z,23.10
2018-05-24T02:43:26.626Z,21.33
2018-05-24T02:48:29.178Z,21.60
2018-05-24T02:53:31.716Z,21.95
2018-05-24T02:58:34.304Z,19.50
2018-05-24T03:03:36.852Z,21.77
2018-05-24T03:08:40.674Z,21.48
2018-05-24T03:13:43.184Z,19.90
2018-05-24T03:18:46.867Z,21.42
2018-05-24T03:23:50.183Z,23.50
2018-05-24T03:28:53.496Z,23.93
2018-05-24T03:33:58.697Z,23.87
2018-05-24T03:39:01.231Z,20.60
2018-05-24T03:44:03.790Z,23.10
2018-05-24T03:49:06.311Z,23.77
2018-05-24T03:54:09.637Z,22.67
2018-05-24T04:05:01.775Z,24.10
2018-05-24T04:10:04.312Z,25.13
2018-05-24T04:15:06.864Z,22.25
2018-05-24T04:20:09.367Z,22.10
2018-05-24T04:25:11.915Z,22.52
2018-05-24T04:30:14.441Z,22.50
2018-05-24T04:35:16.945Z,21.17
2018-05-24T04:40:19.433Z,23.20
2018-05-24T04:45:22.052Z,27.85
2018-05-24T04:50:24.526Z,25.98
2018-05-24T04:55:27.071Z,25.43
2018-05-24T05:00:30.348Z,23.10
2018-05-24T05:05:32.858Z,23.17
2018-05-24T05:10:35.360Z,22.30
2018-05-24T05:15:37.888Z,22.13
2018-05-24T05:20:40.437Z,22.42
2018-05-24T05:25:42.965Z,20.00
2018-05-24T05:30:46.272Z,20.37
2018-05-24T05:35:49.588Z,18.33
2018-05-24T05:40:52.833Z,17.55
2018-05-24T05:45:55.352Z,14.83
2018-05-24T05:50:57.887Z,15.85
2018-05-24T05:56:01.142Z,14.90
2018-05-24T06:01:03.641Z,15.30
2018-05-24T06:06:06.182Z,14.35
2018-05-24T06:11:09.427Z,14.90
2018-05-24T06:16:11.899Z,14.23
2018-05-24T06:21:14.389Z,14.33
2018-05-24T06:26:16.903Z,13.50
2018-05-24T06:31:19.443Z,13.07
2018-05-24T06:36:22.739Z,14.90
2018-05-24T06:41:25.238Z,14.07
2018-05-24T06:46:27.718Z,14.18
2018-05-24T06:51:30.319Z,13.63
2018-05-24T06:56:32.808Z,14.13
2018-05-24T07:01:35.327Z,14.27
2018-05-24T07:06:38.608Z,14.18
2018-05-24T07:11:44.727Z,18.17
2018-05-24T07:16:47.244Z,15.40
2018-05-24T07:21:49.742Z,13.43
2018-05-24T07:26:52.267Z,13.70
2018-05-24T07:31:54.767Z,14.30
2018-05-24T07:36:57.256Z,15.00
2018-05-24T07:41:59.796Z,16.80
2018-05-24T07:47:02.276Z,16.00
2018-05-24T07:52:04.842Z,15.38
2018-05-24T07:57:07.316Z,15.90
2018-05-24T08:02:09.828Z,14.70
2018-05-24T08:07:13.299Z,14.93
2018-05-24T08:12:15.798Z,13.73
2018-05-24T08:17:18.288Z,14.00
2018-05-24T08:22:20.806Z,13.85
2018-05-24T08:27:23.310Z,11.90
2018-05-24T08:32:25.833Z,12.50
2018-05-24T08:37:28.334Z,12.52
2018-05-24T08:42:30.838Z,12.03
2018-05-24T08:47:33.334Z,11.65
2018-05-24T08:52:35.832Z,11.90
2018-05-24T08:57:38.351Z,13.10
2018-05-24T09:02:40.901Z,13.93
2018-05-24T09:07:43.466Z,13.20
2018-05-24T09:12:47.970Z,13.50
2018-05-24T09:17:50.467Z,12.00
2018-05-24T09:22:52.965Z,13.02
2018-05-24T09:27:55.512Z,14.70
2018-05-24T09:32:58.054Z,15.37
2018-05-24T09:38:00.600Z,16.30
2018-05-24T09:43:03.104Z,17.45
2018-05-24T09:48:05.627Z,18.58
2018-05-24T09:53:08.180Z,18.45
2018-05-24T09:58:10.675Z,18.00
2018-05-24T10:03:13.184Z,17.27
2018-05-24T10:08:15.716Z,17.13
2018-05-24T10:13:18.290Z,15.07
2018-05-24T10:18:22.643Z,14.05
2018-05-24T10:23:26.173Z,12.40
2018-05-24T10:28:29.484Z,13.05
2018-05-24T10:33:32.816Z,11.80
2018-05-24T10:38:38.185Z,9.85
2018-05-24T10:43:40.712Z,9.77
2018-05-24T10:48:43.379Z,8.40
2018-05-24T10:53:45.938Z,8.13
2018-05-24T10:58:50.365Z,8.20
2018-05-24T11:03:53.047Z,6.47
2018-05-24T11:08:55.577Z,6.50
2018-05-24T11:13:58.849Z,6.40
2018-05-24T11:19:02.903Z,7.12
2018-05-24T11:24:05.498Z,6.30
2018-05-24T11:29:08.767Z,6.20
2018-05-24T11:34:11.948Z,6.30
2018-05-24T11:39:17.889Z,5.70
2018-05-24T11:44:20.787Z,5.62
2018-05-24T11:49:23.604Z,6.00
2018-05-24T11:54:26.888Z,5.50
2018-05-24T11:59:30.193Z,5.20
2018-05-24T12:04:32.799Z,5.90
2018-05-24T12:09:35.395Z,5.00
2018-05-24T12:14:38.332Z,5.80
2018-05-24T12:19:40.842Z,5.40
2018-05-24T12:24:43.339Z,5.40
2018-05-24T12:29:45.855Z,5.18
2018-05-24T12:34:48.352Z,5.50
2018-05-24T12:39:50.876Z,5.60
2018-05-24T12:44:54.169Z,5.50
2018-05-24T12:49:56.676Z,5.80
2018-05-24T12:54:59.198Z,6.70
2018-05-24T13:00:02.738Z,5.40
2018-05-24T13:05:05.256Z,6.27
2018-05-24T13:10:08.129Z,6.22
2018-05-24T13:15:10.703Z,6.10
2018-05-24T13:20:13.237Z,6.20
2018-05-24T13:25:15.762Z,6.10
2018-05-24T13:30:19.068Z,5.57
2018-05-24T13:35:22.343Z,6.30
2018-05-24T13:40:25.020Z,6.53
2018-05-24T13:45:27.524Z,6.50
2018-05-24T13:50:35.192Z,5.75
2018-05-24T13:55:44.019Z,5.40
2018-05-24T14:00:46.600Z,5.45
2018-05-24T14:05:49.956Z,5.50
2018-05-24T14:10:52.636Z,7.62
2018-05-24T14:15:55.963Z,4.30
2018-05-24T14:20:58.529Z,4.75
2018-05-24T14:26:01.103Z,4.20
2018-05-24T14:31:03.664Z,4.10
2018-05-24T14:36:06.783Z,4.30
2018-05-24T14:41:09.267Z,4.12
2018-05-24T14:46:11.778Z,3.80
2018-05-24T14:51:14.473Z,4.10
2018-05-24T14:56:17.472Z,4.68
2018-05-24T15:01:19.969Z,4.03
2018-05-24T15:06:22.478Z,4.53
2018-05-24T15:11:25.878Z,5.30
2018-05-24T15:16:28.397Z,4.50
2018-05-24T15:21:30.927Z,4.25
2018-05-24T15:26:33.460Z,4.40
2018-05-24T15:31:36.092Z,4.15
2018-05-24T15:36:39.976Z,4.10
2018-05-24T15:41:42.533Z,3.83
2018-05-24T15:46:45.038Z,4.57
2018-05-24T15:51:48.316Z,3.75
2018-05-24T15:56:51.675Z,4.35
2018-05-24T16:01:54.193Z,4.25
2018-05-24T16:06:56.740Z,4.70
2018-05-24T16:11:59.228Z,4.40
2018-05-24T16:17:01.755Z,4.30
2018-05-24T16:22:04.265Z,4.50
2018-05-24T16:27:07.115Z,4.70
2018-05-24T16:32:09.652Z,4.80
2018-05-24T16:37:12.154Z,4.50
2018-05-24T16:42:14.671Z,4.60
2018-05-24T16:47:17.923Z,4.40
2018-05-24T16:52:20.434Z,5.30
2018-05-24T16:57:22.953Z,6.07
2018-05-24T17:02:25.452Z,5.45
2018-05-24T17:07:31.040Z,4.53
2018-05-24T17:12:33.591Z,5.40
2018-05-24T17:17:36.080Z,4.45
2018-05-24T17:22:38.591Z,4.80
2018-05-24T17:27:41.133Z,4.70
2018-05-24T17:32:44.686Z,4.37
2018-05-24T17:37:47.275Z,4.00
2018-05-24T17:42:49.754Z,4.00
2018-05-24T17:47:52.243Z,4.40
2018-05-24T17:52:54.763Z,4.30
2018-05-24T17:57:57.310Z,5.37
2018-05-24T18:02:59.821Z,5.40
2018-05-24T18:08:02.374Z,5.72
2018-05-24T18:13:05.652Z,5.50
2018-05-24T18:18:08.220Z,5.20
2018-05-24T18:23:10.743Z,5.83
2018-05-24T18:28:13.262Z,6.10
2018-05-24T18:33:16.534Z,6.37
2018-05-24T18:38:19.062Z,8.95
2018-05-24T18:43:22.324Z,7.87
2018-05-24T18:48:24.863Z,7.00
2018-05-24T18:53:27.410Z,6.97
2018-05-24T18:58:29.895Z,7.40
2018-05-24T19:03:32.368Z,7.18
2018-05-24T19:08:34.895Z,7.93
2018-05-24T19:13:37.611Z,7.60
2018-05-24T19:18:40.153Z,7.40
2018-05-24T19:23:42.674Z,7.70
2018-05-24T19:28:45.164Z,7.70
2018-05-24T19:33:47.631Z,7.95
2018-05-24T19:38:50.151Z,8.40
2018-05-24T19:43:52.679Z,7.90
2018-05-24T19:48:55.323Z,9.10
2018-05-24T19:53:57.859Z,9.88
2018-05-24T19:59:00.363Z,10.30
2018-05-24T20:04:04.118Z,10.40
2018-05-24T20:09:07.842Z,10.40
2018-05-24T20:14:10.655Z,11.47
2018-05-24T20:19:13.430Z,11.55
2018-05-24T20:24:16.300Z,11.68
2018-05-24T20:29:19.248Z,12.00
2018-05-24T20:34:22.034Z,13.23
2018-05-24T20:39:26.533Z,13.13
2018-05-24T20:44:29.084Z,11.85
2018-05-24T20:49:31.598Z,12.63
2018-05-24T20:54:34.217Z,11.95
2018-05-24T20:59:36.692Z,13.62
2018-05-24T21:04:39.204Z,12.90
2018-05-24T21:09:41.813Z,13.23
2018-05-24T21:14:44.305Z,13.98
2018-05-24T21:19:47.099Z,14.65
2018-05-24T21:24:49.671Z,13.75
2018-05-24T21:29:52.305Z,13.75
2018-05-24T21:34:56.413Z,14.05
2018-05-24T21:40:00.024Z,13.90
2018-05-24T21:45:02.641Z,13.52
2018-05-24T21:50:05.173Z,14.10
2018-05-24T21:55:08.693Z,13.55
2018-05-24T22:00:11.211Z,13.50
2018-05-24T22:05:13.738Z,13.73
2018-05-24T22:10:16.896Z,14.70
2018-05-24T22:15:19.407Z,14.87
2018-05-24T22:20:21.885Z,16.20
2018-05-24T22:25:24.452Z,16.00
2018-05-24T22:30:26.954Z,15.48
2018-05-24T22:35:29.423Z,15.53
2018-05-24T22:40:33.702Z,15.65
2018-05-24T22:45:36.219Z,15.37
2018-05-24T22:50:38.712Z,14.95
2018-05-24T22:55:41.215Z,14.80
2018-05-24T23:00:43.718Z,15.07
2018-05-24T23:05:47.026Z,15.75
2018-05-24T23:10:49.516Z,14.60
2018-05-24T23:15:56.589Z,18.02
2018-05-24T23:20:59.063Z,16.20
2018-05-24T23:26:01.553Z,17.30
2018-05-24T23:31:04.047Z,16.60
2018-05-24T23:36:06.543Z,16.87
2018-05-24T23:52:32.159Z,11.93
2018-05-24T23:57:35.703Z,12.37
